Time;durP1;ratioP1;P1;durP2;ratioP2;P2;SDS_P1;SDS_P2;PMS_P1;PMS_P2;Temp;Humidity;BMP_temperature;BMP_pressure;BME280_temperature;BME280_humidity;BME280_pressure;Samples;Min_cycle;Max_cycle;Signal;HPM_P1;HPM_P2
2022/08/28 00:01:28;;;;;;;;;;;15.30;99.90;;;;;;4969691;28;19936;-72
2022/08/28 00:03:53;;;;;;;;;;;15.20;99.90;;;;;;4976971;28;20326;-71
2022/08/28 00:06:19;;;;;;;;;;;15.20;99.90;;;;;;4969009;28;19940;-71
2022/08/28 00:08:45;;;;;;;;;;;15.20;99.90;;;;;;4986235;28;19918;-71
2022/08/28 00:11:11;;;;;;;;;;;15.20;99.90;;;;;;4986872;28;19921;-71
2022/08/28 00:13:36;;;;;;;;;;;15.20;99.90;;;;;;4985208;28;19918;-71
2022/08/28 00:16:02;;;;;;;;;;;15.20;99.90;;;;;;4965507;28;19922;-72
2022/08/28 00:18:30;;;;;;;;;;;15.20;99.90;;;;;;4979630;28;19969;-72
2022/08/28 00:20:56;;;;;;;;;;;15.10;99.90;;;;;;4950716;28;20347;-72
2022/08/28 00:23:21;;;;;;;;;;;15.10;99.90;;;;;;4978488;28;19922;-72
2022/08/28 00:25:47;;;;;;;;;;;15.10;99.90;;;;;;4983551;28;20172;-71
2022/08/28 00:28:13;;;;;;;;;;;15.10;99.90;;;;;;4991416;28;19918;-71
2022/08/28 00:30:40;;;;;;;;;;;15.10;99.90;;;;;;4977372;28;19917;-71
2022/08/28 00:33:08;;;;;;;;;;;15.10;99.90;;;;;;4988327;28;19921;-72
2022/08/28 00:35:34;;;;;;;;;;;15.20;99.90;;;;;;4985434;28;19988;-71
2022/08/28 00:37:59;;;;;;;;;;;15.10;99.90;;;;;;4982869;28;19918;-71
2022/08/28 00:40:26;;;;;;;;;;;15.10;99.90;;;;;;4965996;28;19924;-72
2022/08/28 00:42:54;;;;;;;;;;;15.10;99.90;;;;;;4960831;28;20388;-71
2022/08/28 00:45:20;;;;;;;;;;;15.10;99.90;;;;;;4982592;28;20000;-71
2022/08/28 00:47:45;;;;;;;;;;;15.10;99.90;;;;;;4985194;28;19949;-71
2022/08/28 00:50:13;;;;;;;;;;;15.10;99.90;;;;;;4969499;28;19984;-73
2022/08/28 00:52:39;;;;;;;;;;;15.10;99.90;;;;;;4981953;28;19921;-72
2022/08/28 00:55:07;;;;;;;;;;;15.20;99.90;;;;;;4963567;28;19933;-71
2022/08/28 00:57:34;;;;;;;;;;;15.10;99.90;;;;;;4981377;28;19918;-71
2022/08/28 01:00:00;;;;;;;;;;;15.10;99.90;;;;;;4981709;28;19933;-71
2022/08/28 01:02:26;;;;;;;;;;;15.10;99.90;;;;;;4976785;28;19925;-71
2022/08/28 01:04:51;;;;;;;;;;;15.10;99.90;;;;;;4974782;28;20075;-71
2022/08/28 01:07:17;;;;;;;;;;;15.20;99.90;;;;;;4980918;28;20012;-71
2022/08/28 01:09:47;;;;;;;;;;;15.10;99.90;;;;;;4977983;28;19918;-71
2022/08/28 01:12:15;;;;;;;;;;;15.10;99.90;;;;;;4979119;28;19961;-72
2022/08/28 01:14:40;;;;;;;;;;;15.10;99.90;;;;;;4964572;28;19997;-71
2022/08/28 01:17:07;;;;;;;;;;;15.10;99.90;;;;;;4984728;28;20291;-71
2022/08/28 01:19:39;;;;;;;;;;;15.10;99.90;;;;;;4984545;28;20107;-71
2022/08/28 01:22:07;;;;;;;;;;;15.00;99.90;;;;;;4981762;28;19918;-71
2022/08/28 01:24:34;;;;;;;;;;;15.00;99.90;;;;;;5012140;23;20560;-75
2022/08/28 01:27:00;;;;;;;;;;;15.00;99.90;;;;;;5004796;28;20076;-76
2022/08/28 01:29:27;;;;;;;;;;;15.10;99.90;;;;;;5005744;28;20012;-76
2022/08/28 01:31:53;;;;;;;;;;;15.00;99.90;;;;;;5003114;28;19917;-76
2022/08/28 01:34:19;;;;;;;;;;;15.00;99.90;;;;;;5005995;28;20371;-76
2022/08/28 01:36:47;;;;;;;;;;;15.00;99.90;;;;;;5003863;28;19917;-76
2022/08/28 01:39:18;;;;;;;;;;;15.00;99.90;;;;;;4995634;28;20338;-76
2022/08/28 01:41:46;;;;;;;;;;;15.00;99.90;;;;;;5004727;28;20138;-76
2022/08/28 01:44:13;;;;;;;;;;;15.00;99.90;;;;;;4998138;28;19921;-75
2022/08/28 01:46:40;;;;;;;;;;;14.90;99.90;;;;;;5005403;28;19924;-76
2022/08/28 01:49:05;;;;;;;;;;;14.90;99.90;;;;;;5005417;28;19917;-76
2022/08/28 01:51:31;;;;;;;;;;;14.90;99.90;;;;;;5005494;28;20256;-76
2022/08/28 01:53:56;;;;;;;;;;;14.90;99.90;;;;;;4975564;28;19933;-76
2022/08/28 01:56:22;;;;;;;;;;;14.90;99.90;;;;;;4969607;28;19917;-75
2022/08/28 01:58:48;;;;;;;;;;;14.90;99.90;;;;;;4987537;28;19935;-75
2022/08/28 02:01:17;;;;;;;;;;;14.90;99.90;;;;;;4999916;28;20199;-76
2022/08/28 02:03:43;;;;;;;;;;;14.90;99.90;;;;;;4996800;28;20041;-76
2022/08/28 02:06:09;;;;;;;;;;;14.90;99.90;;;;;;5001540;28;19969;-76
2022/08/28 02:08:35;;;;;;;;;;;14.90;99.90;;;;;;4998244;28;19960;-76
2022/08/28 02:11:02;;;;;;;;;;;14.80;99.90;;;;;;5002000;28;19935;-75
2022/08/28 02:13:27;;;;;;;;;;;14.90;99.90;;;;;;5003963;28;20354;-76
2022/08/28 02:15:53;;;;;;;;;;;14.80;99.90;;;;;;5005037;28;19917;-76
2022/08/28 02:18:19;;;;;;;;;;;14.80;99.90;;;;;;5007291;28;19925;-76
2022/08/28 02:20:45;;;;;;;;;;;14.80;99.90;;;;;;4988727;28;19933;-75
2022/08/28 02:23:10;;;;;;;;;;;14.80;99.90;;;;;;5006328;28;20332;-76
2022/08/28 02:25:36;;;;;;;;;;;14.80;99.90;;;;;;5003938;28;19965;-76
2022/08/28 02:28:02;;;;;;;;;;;14.80;99.90;;;;;;5006017;28;19924;-76
2022/08/28 02:30:27;;;;;;;;;;;14.80;99.90;;;;;;5005323;28;19940;-76
2022/08/28 02:32:53;;;;;;;;;;;14.70;99.90;;;;;;5003896;28;19983;-75
2022/08/28 02:35:20;;;;;;;;;;;14.70;99.90;;;;;;5007572;28;19921;-76
2022/08/28 02:37:46;;;;;;;;;;;14.70;99.90;;;;;;5002598;28;19917;-76
2022/08/28 02:40:13;;;;;;;;;;;14.70;99.90;;;;;;5007781;28;20025;-76
2022/08/28 02:42:40;;;;;;;;;;;14.70;99.90;;;;;;4989733;28;19918;-76
2022/08/28 02:45:07;;;;;;;;;;;14.70;99.90;;;;;;5003713;28;20286;-76
2022/08/28 02:47:32;;;;;;;;;;;14.70;99.90;;;;;;4988613;28;19923;-75
2022/08/28 02:49:58;;;;;;;;;;;14.70;99.90;;;;;;4995012;28;19921;-76
2022/08/28 02:52:24;;;;;;;;;;;14.70;99.90;;;;;;4996335;28;19977;-76
2022/08/28 02:54:49;;;;;;;;;;;14.70;99.90;;;;;;5005133;28;19921;-76
2022/08/28 02:57:15;;;;;;;;;;;14.70;99.90;;;;;;5004539;28;20231;-76
2022/08/28 02:59:42;;;;;;;;;;;14.70;99.90;;;;;;5003737;28;20394;-76
2022/08/28 03:02:08;;;;;;;;;;;14.70;99.90;;;;;;4998645;28;20004;-75
2022/08/28 03:04:34;;;;;;;;;;;14.70;99.90;;;;;;4997729;28;20008;-75
2022/08/28 03:07:00;;;;;;;;;;;14.60;99.90;;;;;;4999548;28;19925;-75
2022/08/28 03:09:25;;;;;;;;;;;14.60;99.90;;;;;;5015321;28;19977;-76
2022/08/28 03:11:54;;;;;;;;;;;14.60;99.90;;;;;;4987252;28;19917;-76
2022/08/28 03:14:20;;;;;;;;;;;14.50;99.90;;;;;;4986201;28;19917;-76
2022/08/28 03:16:46;;;;;;;;;;;14.60;99.90;;;;;;4986217;28;19917;-76
2022/08/28 03:19:11;;;;;;;;;;;14.50;99.90;;;;;;4986934;28;19979;-76
2022/08/28 03:21:37;;;;;;;;;;;14.40;99.90;;;;;;5002190;28;20017;-76
2022/08/28 03:24:03;;;;;;;;;;;14.50;99.90;;;;;;5003245;28;20321;-76
2022/08/28 03:26:28;;;;;;;;;;;14.50;99.90;;;;;;5004795;28;20286;-75
2022/08/28 03:28:54;;;;;;;;;;;14.50;99.90;;;;;;5000603;28;19924;-76
2022/08/28 03:31:22;;;;;;;;;;;14.50;99.90;;;;;;4973547;28;19917;-76
2022/08/28 03:33:47;;;;;;;;;;;14.50;99.90;;;;;;4973809;28;19945;-76
2022/08/28 03:36:15;;;;;;;;;;;14.40;99.90;;;;;;5003465;28;20040;-76
2022/08/28 03:38:41;;;;;;;;;;;14.50;99.90;;;;;;5003521;28;19987;-76
2022/08/28 03:41:10;;;;;;;;;;;14.40;99.90;;;;;;5002242;28;19929;-76
2022/08/28 03:43:36;;;;;;;;;;;14.40;99.90;;;;;;5006250;28;19960;-76
2022/08/28 03:46:03;;;;;;;;;;;14.40;99.90;;;;;;5002302;28;20398;-76
2022/08/28 03:48:30;;;;;;;;;;;14.40;99.90;;;;;;5006893;28;19921;-76
2022/08/28 03:50:57;;;;;;;;;;;14.40;99.90;;;;;;4994442;28;19925;-76
2022/08/28 03:53:24;;;;;;;;;;;14.40;99.90;;;;;;5017194;28;20014;-76
2022/08/28 03:55:49;;;;;;;;;;;14.40;99.90;;;;;;5001463;28;19924;-76
2022/08/28 03:58:15;;;;;;;;;;;14.40;99.90;;;;;;5007719;28;19917;-75
2022/08/28 04:00:41;;;;;;;;;;;14.30;99.90;;;;;;4997444;28;20023;-76
2022/08/28 04:03:07;;;;;;;;;;;14.30;99.90;;;;;;5006098;28;19918;-76
2022/08/28 04:05:33;;;;;;;;;;;14.40;99.90;;;;;;4995507;28;19925;-76
2022/08/28 04:08:00;;;;;;;;;;;14.40;99.90;;;;;;5006003;28;20020;-75
2022/08/28 04:10:26;;;;;;;;;;;14.30;99.90;;;;;;5002316;28;19928;-76
2022/08/28 04:12:52;;;;;;;;;;;14.40;99.90;;;;;;5000812;28;19925;-76
2022/08/28 04:15:19;;;;;;;;;;;14.30;99.90;;;;;;4988778;28;20079;-76
2022/08/28 04:17:44;;;;;;;;;;;14.30;99.90;;;;;;5005608;28;19918;-76
2022/08/28 04:20:10;;;;;;;;;;;14.30;99.90;;;;;;5006414;28;19917;-76
2022/08/28 04:22:36;;;;;;;;;;;14.30;99.90;;;;;;4989314;28;19948;-75
2022/08/28 04:25:02;;;;;;;;;;;14.30;99.90;;;;;;5006457;28;19926;-76
2022/08/28 04:27:27;;;;;;;;;;;14.30;99.90;;;;;;5009878;28;19921;-76
2022/08/28 04:29:53;;;;;;;;;;;14.30;99.90;;;;;;5006906;28;20363;-76
2022/08/28 04:32:18;;;;;;;;;;;14.30;99.90;;;;;;5005436;28;19917;-76
2022/08/28 04:34:44;;;;;;;;;;;14.30;99.90;;;;;;5005586;28;20051;-76
2022/08/28 04:37:10;;;;;;;;;;;14.20;99.90;;;;;;5007988;28;19921;-76
2022/08/28 04:39:36;;;;;;;;;;;14.20;99.90;;;;;;5004445;28;20012;-76
2022/08/28 04:42:01;;;;;;;;;;;14.30;99.90;;;;;;5005263;28;20012;-76
2022/08/28 04:44:27;;;;;;;;;;;14.20;99.90;;;;;;5006781;28;19929;-76
2022/08/28 04:46:52;;;;;;;;;;;14.20;99.90;;;;;;5006560;28;20399;-76
2022/08/28 04:49:18;;;;;;;;;;;14.10;99.90;;;;;;5005238;28;19921;-76
2022/08/28 04:51:43;;;;;;;;;;;14.20;99.90;;;;;;5008122;28;19921;-76
2022/08/28 04:54:09;;;;;;;;;;;14.20;99.90;;;;;;5002869;28;19921;-76
2022/08/28 04:56:35;;;;;;;;;;;14.10;99.90;;;;;;4979821;28;20306;-76
2022/08/28 04:59:02;;;;;;;;;;;14.10;99.90;;;;;;5001352;28;19967;-76
2022/08/28 05:01:28;;;;;;;;;;;14.20;99.90;;;;;;5011824;28;19969;-76
2022/08/28 05:03:56;;;;;;;;;;;14.20;99.90;;;;;;4998724;28;20019;-76
2022/08/28 05:06:25;;;;;;;;;;;14.20;99.90;;;;;;5003055;28;20008;-76
2022/08/28 05:08:55;;;;;;;;;;;14.20;99.90;;;;;;4989266;28;20440;-76
2022/08/28 05:11:22;;;;;;;;;;;14.30;99.90;;;;;;5002449;28;19944;-76
2022/08/28 05:13:49;;;;;;;;;;;14.30;99.90;;;;;;4989453;28;19917;-76
2022/08/28 05:16:15;;;;;;;;;;;14.30;99.90;;;;;;4987943;28;19917;-76
2022/08/28 05:18:41;;;;;;;;;;;14.20;99.90;;;;;;5005802;28;20354;-76
2022/08/28 05:21:11;;;;;;;;;;;14.30;99.90;;;;;;5006632;28;20019;-76
2022/08/28 05:23:37;;;;;;;;;;;14.30;99.90;;;;;;4986580;28;20050;-76
2022/08/28 05:26:02;;;;;;;;;;;14.40;99.90;;;;;;5006140;28;19917;-76
2022/08/28 05:28:28;;;;;;;;;;;14.40;99.90;;;;;;5004560;28;20011;-76
2022/08/28 05:30:53;;;;;;;;;;;14.40;99.90;;;;;;4980270;28;19918;-76
2022/08/28 05:33:19;;;;;;;;;;;14.40;99.90;;;;;;5004250;28;19956;-76
2022/08/28 05:35:45;;;;;;;;;;;14.40;99.90;;;;;;5006616;28;19917;-76
2022/08/28 05:38:12;;;;;;;;;;;14.50;99.90;;;;;;5021180;28;19921;-76
2022/08/28 05:40:42;;;;;;;;;;;14.50;99.90;;;;;;4984024;28;20409;-76
2022/08/28 05:43:09;;;;;;;;;;;14.50;99.90;;;;;;5022393;28;19925;-76
2022/08/28 05:45:34;;;;;;;;;;;14.60;99.90;;;;;;5009010;28;19925;-76
2022/08/28 05:48:00;;;;;;;;;;;14.60;99.90;;;;;;5000801;28;19917;-76
2022/08/28 05:50:25;;;;;;;;;;;14.70;99.90;;;;;;4989042;28;19971;-76
2022/08/28 05:52:51;;;;;;;;;;;14.80;99.90;;;;;;5004718;28;20015;-76
2022/08/28 05:55:16;;;;;;;;;;;14.80;99.90;;;;;;4992847;28;19917;-76
2022/08/28 05:57:42;;;;;;;;;;;14.80;99.90;;;;;;5004005;28;19921;-76
2022/08/28 06:00:11;;;;;;;;;;;14.90;99.90;;;;;;5004767;28;20068;-76
2022/08/28 06:02:37;;;;;;;;;;;14.90;99.90;;;;;;5001700;28;19925;-76
2022/08/28 06:05:02;;;;;;;;;;;15.00;99.90;;;;;;5017152;28;20363;-76
2022/08/28 06:07:28;;;;;;;;;;;15.10;99.90;;;;;;5004359;28;19921;-76
2022/08/28 06:09:53;;;;;;;;;;;15.10;99.90;;;;;;5000592;28;19937;-76
2022/08/28 06:12:20;;;;;;;;;;;15.20;99.90;;;;;;5001318;28;20092;-77
2022/08/28 06:14:45;;;;;;;;;;;15.30;99.90;;;;;;5005036;28;20598;-76
2022/08/28 06:17:11;;;;;;;;;;;15.30;99.90;;;;;;5004599;28;19921;-76
2022/08/28 06:19:36;;;;;;;;;;;15.30;99.90;;;;;;5004876;28;19975;-76
2022/08/28 06:22:03;;;;;;;;;;;15.40;99.90;;;;;;5001509;28;20016;-76
2022/08/28 06:24:29;;;;;;;;;;;15.40;99.90;;;;;;4998907;28;20004;-76
2022/08/28 06:26:56;;;;;;;;;;;15.50;99.90;;;;;;5003270;28;20334;-77
2022/08/28 06:29:21;;;;;;;;;;;15.50;99.90;;;;;;5003588;28;20055;-76
2022/08/28 06:31:51;;;;;;;;;;;15.60;99.90;;;;;;5005015;28;21384;-76
2022/08/28 06:34:17;;;;;;;;;;;15.60;99.90;;;;;;5002509;28;20008;-76
2022/08/28 06:36:43;;;;;;;;;;;15.70;99.90;;;;;;5003744;28;20024;-76
2022/08/28 06:39:10;;;;;;;;;;;15.80;99.90;;;;;;5005811;28;19948;-76
2022/08/28 06:41:39;;;;;;;;;;;15.80;99.90;;;;;;5004912;28;19921;-76
2022/08/28 06:44:06;;;;;;;;;;;15.80;99.90;;;;;;5003277;28;19940;-77
2022/08/28 06:46:33;;;;;;;;;;;15.90;99.90;;;;;;5002986;28;20014;-76
2022/08/28 06:49:00;;;;;;;;;;;15.90;99.90;;;;;;5003901;28;19965;-77
2022/08/28 06:51:25;;;;;;;;;;;16.00;99.90;;;;;;5003860;28;19992;-77
2022/08/28 06:53:51;;;;;;;;;;;16.00;99.90;;;;;;5005114;28;20415;-75
2022/08/28 06:56:18;;;;;;;;;;;16.10;99.90;;;;;;5003427;28;19917;-75
2022/08/28 06:58:45;;;;;;;;;;;16.20;99.90;;;;;;5001811;28;19925;-75
2022/08/28 07:01:21;;;;;;;;;;;16.30;99.90;;;;;;5001784;28;19925;-75
2022/08/28 07:03:47;;;;;;;;;;;16.30;99.90;;;;;;4996938;28;19929;-75
2022/08/28 07:06:13;;;;;;;;;;;16.40;99.90;;;;;;5003540;28;19987;-77
2022/08/28 07:08:40;;;;;;;;;;;16.50;99.90;;;;;;5003150;28;19918;-77
2022/08/28 07:11:14;;;;;;;;;;;16.60;99.90;;;;;;4986471;28;20251;-78
2022/08/28 07:13:40;;;;;;;;;;;16.70;99.90;;;;;;4998359;28;19925;-78
2022/08/28 07:16:06;;;;;;;;;;;16.70;99.90;;;;;;4986839;28;19918;-77
2022/08/28 07:18:31;;;;;;;;;;;16.90;99.90;;;;;;4986302;28;20357;-75
2022/08/28 07:20:57;;;;;;;;;;;17.00;99.90;;;;;;5019366;28;19921;-75
2022/08/28 07:23:23;;;;;;;;;;;17.10;99.90;;;;;;4994053;23;20405;-71
2022/08/28 07:25:49;;;;;;;;;;;17.20;99.90;;;;;;4983493;28;19921;-72
2022/08/28 07:28:15;;;;;;;;;;;17.30;99.90;;;;;;4985295;28;19924;-72
2022/08/28 07:30:41;;;;;;;;;;;17.40;99.90;;;;;;4972107;28;19944;-72
2022/08/28 07:33:06;;;;;;;;;;;17.50;99.90;;;;;;4987015;28;19922;-72
2022/08/28 07:35:32;;;;;;;;;;;17.60;99.90;;;;;;4994084;28;20004;-72
2022/08/28 07:37:57;;;;;;;;;;;17.80;99.90;;;;;;5000299;28;19923;-72
2022/08/28 07:40:23;;;;;;;;;;;17.80;99.90;;;;;;4972767;28;20426;-72
2022/08/28 07:45:34;;;;;;;;;;;17.90;99.90;;;;;;4990983;28;19918;-72
2022/08/28 07:48:02;;;;;;;;;;;17.90;99.90;;;;;;4987074;28;20110;-72
2022/08/28 07:50:28;;;;;;;;;;;17.90;99.90;;;;;;4985558;28;19949;-72
2022/08/28 07:52:53;;;;;;;;;;;17.90;99.90;;;;;;4986677;28;19975;-72
2022/08/28 07:55:19;;;;;;;;;;;17.90;99.90;;;;;;4984122;28;19917;-72
2022/08/28 07:57:46;;;;;;;;;;;17.90;99.90;;;;;;4967842;28;20296;-72
2022/08/28 08:00:12;;;;;;;;;;;17.90;99.90;;;;;;4995726;28;19921;-73
2022/08/28 08:02:37;;;;;;;;;;;17.90;99.90;;;;;;4983669;28;19959;-72
2022/08/28 08:05:04;;;;;;;;;;;18.00;99.90;;;;;;4985444;28;19921;-72
2022/08/28 08:07:29;;;;;;;;;;;18.00;99.90;;;;;;4986359;28;20146;-72
2022/08/28 08:09:55;;;;;;;;;;;18.10;99.90;;;;;;4963715;28;19960;-72
2022/08/28 08:12:21;;;;;;;;;;;18.20;99.90;;;;;;4980778;28;19956;-72
2022/08/28 08:14:48;;;;;;;;;;;18.30;99.90;;;;;;4984195;28;20302;-73
2022/08/28 08:17:14;;;;;;;;;;;18.50;99.90;;;;;;5003194;28;19921;-72
2022/08/28 08:19:39;;;;;;;;;;;18.60;99.90;;;;;;4991862;28;20009;-72
2022/08/28 08:22:05;;;;;;;;;;;18.70;99.90;;;;;;4973333;28;19925;-72
2022/08/28 08:24:34;;;;;;;;;;;18.70;99.90;;;;;;4978960;28;20372;-73
2022/08/28 08:27:00;;;;;;;;;;;18.70;99.90;;;;;;4993020;28;19969;-73
2022/08/28 08:29:34;;;;;;;;;;;18.60;99.90;;;;;;4986025;28;19965;-73
2022/08/28 08:32:03;;;;;;;;;;;18.50;99.90;;;;;;4994245;28;20025;-73
2022/08/28 08:34:30;;;;;;;;;;;18.60;99.90;;;;;;4990326;28;19918;-72
2022/08/28 08:36:55;;;;;;;;;;;18.60;99.90;;;;;;4986013;28;19925;-73
2022/08/28 08:39:21;;;;;;;;;;;18.60;99.90;;;;;;5003351;28;20399;-73
2022/08/28 08:41:48;;;;;;;;;;;18.70;99.90;;;;;;4996328;28;19936;-73
2022/08/28 08:44:23;;;;;;;;;;;18.60;99.90;;;;;;4976319;28;20025;-73
2022/08/28 08:46:58;;;;;;;;;;;18.60;99.90;;;;;;4986659;28;19926;-70
2022/08/28 08:49:27;;;;;;;;;;;18.50;99.90;;;;;;4995238;28;19924;-70
2022/08/28 08:52:01;;;;;;;;;;;18.40;99.90;;;;;;4993580;28;19933;-71
2022/08/28 08:54:27;;;;;;;;;;;18.50;99.90;;;;;;4989688;28;19922;-70
2022/08/28 08:56:54;;;;;;;;;;;18.60;99.90;;;;;;4988734;28;20302;-71
2022/08/28 08:59:20;;;;;;;;;;;18.80;99.90;;;;;;4987986;28;19972;-71
2022/08/28 09:02:01;;;;;;;;;;;18.80;99.90;;;;;;4988811;28;19978;-71
2022/08/28 09:04:32;;;;;;;;;;;18.90;99.90;;;;;;4975485;28;20426;-71
2022/08/28 09:07:06;;;;;;;;;;;18.90;99.90;;;;;;4980756;28;19928;-71
2022/08/28 09:09:34;;;;;;;;;;;18.90;99.90;;;;;;4990366;28;19926;-71
2022/08/28 09:12:06;;;;;;;;;;;18.80;99.90;;;;;;4980807;28;19917;-73
2022/08/28 09:14:35;;;;;;;;;;;18.70;99.90;;;;;;4977787;28;20358;-73
2022/08/28 09:17:01;;;;;;;;;;;18.70;99.90;;;;;;4986585;28;19971;-72
2022/08/28 09:19:27;;;;;;;;;;;18.80;99.90;;;;;;5002765;28;20358;-73
2022/08/28 09:21:53;;;;;;;;;;;18.90;99.90;;;;;;5011545;28;19927;-73
2022/08/28 09:24:23;;;;;;;;;;;18.90;99.90;;;;;;4990659;28;19937;-73
2022/08/28 09:26:50;;;;;;;;;;;18.90;99.90;;;;;;4968790;28;19917;-73
2022/08/28 09:29:17;;;;;;;;;;;18.90;99.90;;;;;;4991324;28;20294;-73
2022/08/28 09:31:43;;;;;;;;;;;19.00;99.90;;;;;;4994019;28;19921;-71
2022/08/28 09:34:23;;;;;;;;;;;19.00;99.90;;;;;;4984109;28;20409;-70
2022/08/28 09:36:49;;;;;;;;;;;18.90;99.90;;;;;;4976234;28;20015;-70
2022/08/28 09:39:20;;;;;;;;;;;18.90;99.90;;;;;;4976774;28;19918;-71
2022/08/28 09:44:46;;;;;;;;;;;18.90;99.90;;;;;;4979529;28;19926;-70
2022/08/28 09:47:31;;;;;;;;;;;19.00;99.90;;;;;;4994690;28;20047;-71
2022/08/28 09:50:12;;;;;;;;;;;19.20;99.90;;;;;;4982731;28;19918;-70
2022/08/28 09:52:38;;;;;;;;;;;19.30;99.90;;;;;;4994154;28;20279;-70
2022/08/28 09:55:04;;;;;;;;;;;19.50;99.90;;;;;;4984928;28;19947;-70
2022/08/28 09:57:29;;;;;;;;;;;19.70;99.90;;;;;;4984955;28;20356;-71
2022/08/28 09:59:56;;;;;;;;;;;19.70;99.90;;;;;;5001742;28;20324;-71
2022/08/28 10:02:38;;;;;;;;;;;19.70;99.90;;;;;;4968321;28;19918;-70
2022/08/28 10:05:09;;;;;;;;;;;19.70;99.90;;;;;;4993102;28;20300;-71
2022/08/28 10:07:50;;;;;;;;;;;19.60;99.90;;;;;;4980055;28;20004;-70
2022/08/28 10:10:16;;;;;;;;;;;19.50;99.90;;;;;;4984153;28;20388;-70
2022/08/28 10:12:50;;;;;;;;;;;19.50;99.90;;;;;;4984917;28;19918;-71
2022/08/28 10:15:37;;;;;;;;;;;19.60;99.90;;;;;;4994554;28;20391;-71
2022/08/28 10:18:42;;;;;;;;;;;19.70;99.90;;;;;;4990116;28;19917;-71
2022/08/28 10:21:33;;;;;;;;;;;19.80;99.90;;;;;;4885215;29;19967;-71
2022/08/28 10:24:02;;;;;;;;;;;20.00;99.90;;;;;;4881161;29;19934;-71
2022/08/28 10:26:34;;;;;;;;;;;20.10;99.90;;;;;;4952038;28;20314;-70
2022/08/28 10:29:11;;;;;;;;;;;20.10;99.90;;;;;;4989521;28;20263;-74
2022/08/28 10:31:42;;;;;;;;;;;19.90;99.90;;;;;;4989755;28;20036;-73
2022/08/28 10:34:26;;;;;;;;;;;19.90;99.90;;;;;;4987252;28;19988;-70
2022/08/28 10:37:01;;;;;;;;;;;19.90;99.90;;;;;;4980039;28;20544;-71
2022/08/28 10:39:35;;;;;;;;;;;20.10;99.90;;;;;;4975485;28;20419;-70
2022/08/28 10:42:03;;;;;;;;;;;20.30;99.90;;;;;;4977595;28;20118;-70
2022/08/28 10:44:35;;;;;;;;;;;20.40;99.90;;;;;;4979244;28;19953;-70
2022/08/28 10:47:01;;;;;;;;;;;20.40;99.90;;;;;;4978492;28;20047;-71
2022/08/28 10:49:29;;;;;;;;;;;20.40;99.90;;;;;;4994051;28;19966;-71
2022/08/28 10:52:02;;;;;;;;;;;20.30;99.90;;;;;;4980521;28;20288;-70
2022/08/28 10:54:40;;;;;;;;;;;20.30;99.90;;;;;;4962982;28;19969;-70
2022/08/28 10:57:24;;;;;;;;;;;20.40;99.90;;;;;;4981760;28;19992;-71
2022/08/28 10:59:51;;;;;;;;;;;20.50;99.90;;;;;;4980533;28;20437;-71
2022/08/28 11:02:18;;;;;;;;;;;20.40;99.90;;;;;;4979833;28;20012;-71
2022/08/28 11:04:45;;;;;;;;;;;20.30;99.90;;;;;;4976823;28;19957;-71
2022/08/28 11:07:13;;;;;;;;;;;20.30;99.90;;;;;;4991226;28;19922;-71
2022/08/28 11:09:45;;;;;;;;;;;20.40;99.90;;;;;;4986814;28;20295;-71
2022/08/28 11:12:18;;;;;;;;;;;20.60;99.90;;;;;;4989859;28;19921;-71
2022/08/28 11:14:45;;;;;;;;;;;20.70;99.90;;;;;;4989938;28;19976;-70
2022/08/28 11:17:31;;;;;;;;;;;20.90;99.90;;;;;;4988532;28;19926;-70
2022/08/28 11:20:15;;;;;;;;;;;20.70;99.90;;;;;;4982432;28;19917;-70
2022/08/28 11:22:47;;;;;;;;;;;20.70;99.90;;;;;;4985555;28;20080;-71
2022/08/28 11:25:42;;;;;;;;;;;20.80;99.90;;;;;;4961659;28;1052092;-71
2022/08/28 11:28:16;;;;;;;;;;;21.00;99.90;;;;;;4972818;28;19958;-71
2022/08/28 11:30:44;;;;;;;;;;;21.20;99.90;;;;;;4990253;28;19934;-71
2022/08/28 11:33:28;;;;;;;;;;;21.20;99.90;;;;;;4990314;28;20132;-71
2022/08/28 11:35:54;;;;;;;;;;;21.20;99.90;;;;;;5004694;28;19986;-71
2022/08/28 11:38:38;;;;;;;;;;;21.00;99.90;;;;;;4997931;28;20434;-71
2022/08/28 11:41:10;;;;;;;;;;;20.90;99.90;;;;;;4987337;28;19925;-71
2022/08/28 11:43:37;;;;;;;;;;;20.80;99.90;;;;;;4989668;28;19922;-71
2022/08/28 11:46:04;;;;;;;;;;;20.60;99.90;;;;;;4966228;28;20372;-71
2022/08/28 11:48:36;;;;;;;;;;;20.60;99.90;;;;;;4996345;28;19918;-70
2022/08/28 11:51:05;;;;;;;;;;;20.60;99.90;;;;;;4992238;28;20003;-70
2022/08/28 11:53:36;;;;;;;;;;;20.80;99.90;;;;;;4988584;28;19928;-71
2022/08/28 11:56:14;;;;;;;;;;;21.00;99.90;;;;;;4988917;28;19922;-71
2022/08/28 11:58:46;;;;;;;;;;;21.30;99.90;;;;;;4987009;28;19918;-70
2022/08/28 12:01:13;;;;;;;;;;;21.60;99.90;;;;;;4994995;28;19926;-70
2022/08/28 12:03:43;;;;;;;;;;;21.70;99.90;;;;;;4997465;28;20300;-70
2022/08/28 12:06:10;;;;;;;;;;;21.80;99.90;;;;;;4986675;28;19929;-71
2022/08/28 12:08:49;;;;;;;;;;;21.90;99.90;;;;;;4988487;28;19937;-71
2022/08/28 12:11:34;;;;;;;;;;;22.00;99.90;;;;;;4981950;28;19921;-71
2022/08/28 12:13:59;;;;;;;;;;;22.10;99.90;;;;;;4994995;28;19925;-71
2022/08/28 12:16:25;;;;;;;;;;;22.30;99.90;;;;;;4989345;28;19996;-71
2022/08/28 12:18:50;;;;;;;;;;;22.40;98.50;;;;;;4987719;28;20095;-71
2022/08/28 12:21:24;;;;;;;;;;;22.40;98.90;;;;;;4987005;28;20060;-71
2022/08/28 12:24:01;;;;;;;;;;;22.40;96.20;;;;;;4986486;28;19926;-71
2022/08/28 12:26:34;;;;;;;;;;;22.30;96.20;;;;;;4983114;28;20012;-71
2022/08/28 12:29:25;;;;;;;;;;;22.30;97.50;;;;;;4989268;28;19968;-72
2022/08/28 12:32:10;;;;;;;;;;;22.30;96.20;;;;;;4982166;28;20427;-71
2022/08/28 12:34:42;;;;;;;;;;;22.30;95.50;;;;;;4983747;28;19918;-71
2022/08/28 12:37:26;;;;;;;;;;;22.10;95.10;;;;;;4979625;28;19918;-71
2022/08/28 12:39:52;;;;;;;;;;;22.10;94.60;;;;;;5004543;28;20147;-71
2022/08/28 12:42:18;;;;;;;;;;;22.00;94.40;;;;;;4996544;28;20524;-71
2022/08/28 12:44:45;;;;;;;;;;;22.00;96.70;;;;;;4985992;28;19923;-71
2022/08/28 12:47:15;;;;;;;;;;;22.10;95.60;;;;;;4991560;28;20408;-71
2022/08/28 12:49:40;;;;;;;;;;;22.10;97.40;;;;;;4992796;28;20008;-71
2022/08/28 12:52:08;;;;;;;;;;;22.10;96.90;;;;;;4989506;28;19917;-71
2022/08/28 12:54:34;;;;;;;;;;;22.20;97.40;;;;;;5000473;28;19918;-71
2022/08/28 12:57:02;;;;;;;;;;;22.20;97.00;;;;;;4998750;28;19917;-71
2022/08/28 12:59:33;;;;;;;;;;;22.40;98.40;;;;;;4988913;28;19921;-71
2022/08/28 13:02:03;;;;;;;;;;;22.40;96.70;;;;;;4980989;28;20023;-71
2022/08/28 13:04:34;;;;;;;;;;;22.40;95.90;;;;;;4985758;28;19921;-71
2022/08/28 13:07:03;;;;;;;;;;;22.40;96.20;;;;;;4977852;28;20075;-70
2022/08/28 13:09:28;;;;;;;;;;;22.30;96.40;;;;;;5001356;28;19918;-71
2022/08/28 13:11:54;;;;;;;;;;;22.10;96.50;;;;;;4984835;28;20321;-70
2022/08/28 13:14:35;;;;;;;;;;;21.90;96.20;;;;;;4987559;28;19918;-71
2022/08/28 13:17:00;;;;;;;;;;;21.90;97.10;;;;;;4981163;28;19929;-71
2022/08/28 13:19:26;;;;;;;;;;;21.80;96.30;;;;;;4990491;28;20017;-70
2022/08/28 13:22:02;;;;;;;;;;;21.70;96.80;;;;;;4988353;28;19921;-71
2022/08/28 13:24:27;;;;;;;;;;;21.70;96.40;;;;;;4979366;28;19956;-71
2022/08/28 13:27:12;;;;;;;;;;;21.80;97.40;;;;;;4993673;28;20027;-70
2022/08/28 13:29:57;;;;;;;;;;;21.80;97.20;;;;;;4995381;28;19944;-71
2022/08/28 13:32:23;;;;;;;;;;;21.80;97.00;;;;;;4984639;28;19924;-71
2022/08/28 13:35:11;;;;;;;;;;;22.00;98.20;;;;;;4993959;28;20380;-71
2022/08/28 13:37:47;;;;;;;;;;;22.20;97.70;;;;;;4991560;28;19981;-71
2022/08/28 13:40:14;;;;;;;;;;;22.30;97.80;;;;;;4978410;28;19924;-71
2022/08/28 13:42:41;;;;;;;;;;;22.40;97.20;;;;;;4950355;28;19968;-71
2022/08/28 13:45:07;;;;;;;;;;;22.50;97.00;;;;;;4988840;28;19917;-71
2022/08/28 13:47:32;;;;;;;;;;;22.70;97.80;;;;;;4984888;28;19940;-71
2022/08/28 13:49:58;;;;;;;;;;;22.90;97.50;;;;;;4983839;28;19917;-71
2022/08/28 13:52:24;;;;;;;;;;;23.00;97.20;;;;;;4988442;28;19918;-71
2022/08/28 13:54:49;;;;;;;;;;;22.90;95.80;;;;;;4981418;28;19922;-71
2022/08/28 13:57:15;;;;;;;;;;;22.70;95.20;;;;;;4983779;28;19918;-71
2022/08/28 13:59:41;;;;;;;;;;;22.60;96.10;;;;;;4986270;28;19937;-71
2022/08/28 14:04:53;;;;;;;;;;;22.40;96.90;;;;;;4978276;28;19933;-71
2022/08/28 14:07:19;;;;;;;;;;;22.30;97.40;;;;;;4982632;28;19922;-71
2022/08/28 14:09:45;;;;;;;;;;;22.10;97.60;;;;;;4977495;28;19972;-71
2022/08/28 14:12:10;;;;;;;;;;;22.00;97.90;;;;;;4994415;28;19984;-71
2022/08/28 14:14:37;;;;;;;;;;;21.90;97.90;;;;;;4985010;28;20418;-71
2022/08/28 14:17:02;;;;;;;;;;;21.70;98.10;;;;;;4984799;28;19921;-71
2022/08/28 14:19:28;;;;;;;;;;;21.70;98.20;;;;;;4984634;28;20298;-71
2022/08/28 14:21:54;;;;;;;;;;;21.60;98.70;;;;;;4984334;28;19922;-71
2022/08/28 14:24:20;;;;;;;;;;;21.50;99.20;;;;;;4991597;28;19918;-71
2022/08/28 14:26:46;;;;;;;;;;;21.50;99.10;;;;;;4990654;28;19924;-71
2022/08/28 14:29:12;;;;;;;;;;;21.40;99.40;;;;;;5005935;28;19928;-71
2022/08/28 14:31:39;;;;;;;;;;;21.50;99.80;;;;;;4989904;28;19917;-72